createdAt,value
2023-04-15T00:00:11.869Z,95622.25
2023-04-15T00:02:44.442Z,95622.75
2023-04-15T00:05:12.533Z,95616.25
2023-04-15T00:07:41.277Z,95612.81
2023-04-15T00:10:10.240Z,95614.06
2023-04-15T00:12:38.288Z,95618.00
2023-04-15T00:15:08.402Z,95618.25
2023-04-15T00:17:38.408Z,95616.03
2023-04-15T00:20:09.129Z,95615.22
2023-04-15T00:22:37.445Z,95610.03
2023-04-15T00:25:06.839Z,95611.09
2023-04-15T00:27:34.923Z,95618.78
2023-04-15T00:30:05.317Z,95620.59
2023-04-15T00:32:33.392Z,95620.00
2023-04-15T00:35:02.222Z,95615.03
2023-04-15T00:37:31.913Z,95616.84
2023-04-15T00:39:59.983Z,95608.47
2023-04-15T00:42:29.436Z,95603.50
2023-04-15T00:44:57.581Z,95604.56
2023-04-15T00:47:26.166Z,95609.00
2023-04-15T00:49:54.184Z,95604.44
2023-04-15T00:52:22.578Z,95612.50
2023-04-15T00:54:53.018Z,95611.50
2023-04-15T00:57:23.580Z,95620.53
2023-04-15T00:59:53.817Z,95618.28
2023-04-15T01:02:22.791Z,95605.50
2023-04-15T01:04:50.932Z,95609.91
2023-04-15T01:07:19.048Z,95608.72
2023-04-15T01:09:47.972Z,95606.09
2023-04-15T01:12:18.733Z,95609.72
2023-04-15T01:14:47.133Z,95614.94
2023-04-15T01:17:15.444Z,95606.09
2023-04-15T01:19:43.851Z,95608.16
2023-04-15T01:22:12.205Z,95606.97
2023-04-15T01:24:40.381Z,95613.38
2023-04-15T01:27:10.456Z,95604.16
2023-04-15T01:29:39.743Z,95609.38
2023-04-15T01:32:07.870Z,95612.41
2023-04-15T01:34:36.092Z,95609.44
2023-04-15T01:37:04.194Z,95612.66
2023-04-15T01:39:32.249Z,95611.03
2023-04-15T01:42:00.466Z,95609.22
2023-04-15T01:44:29.871Z,95609.47
2023-04-15T01:46:58.504Z,95612.13
2023-04-15T01:49:28.385Z,95604.03
2023-04-15T01:51:56.452Z,95598.81
2023-04-15T01:54:24.705Z,95605.25
2023-04-15T01:56:52.933Z,95608.44
2023-04-15T01:59:21.010Z,95599.19
2023-04-15T02:01:50.858Z,95598.59
2023-04-15T02:04:18.940Z,95598.44
2023-04-15T02:06:47.273Z,95602.03
2023-04-15T02:09:15.530Z,95598.22
2023-04-15T02:11:47.148Z,95603.06
2023-04-15T02:14:15.323Z,95602.06
2023-04-15T02:16:43.399Z,95600.66
2023-04-15T02:19:13.919Z,95599.03
2023-04-15T02:21:42.296Z,95598.66
2023-04-15T02:24:12.093Z,95598.28
2023-04-15T02:26:42.566Z,95602.44
2023-04-15T02:29:10.783Z,95597.00
2023-04-15T02:31:40.636Z,95598.66
2023-04-15T02:34:08.863Z,95596.44
2023-04-15T02:36:39.095Z,95596.22
2023-04-15T02:39:07.146Z,95595.22
2023-04-15T02:41:35.804Z,95593.00
2023-04-15T02:44:07.105Z,95589.44
2023-04-15T02:46:35.132Z,95583.81
2023-04-15T02:49:03.500Z,95588.63
2023-04-15T02:51:32.490Z,95590.66
2023-04-15T02:54:02.298Z,95587.06
2023-04-15T02:56:31.302Z,95585.84
2023-04-15T02:58:59.736Z,95585.19
2023-04-15T03:01:28.477Z,95584.66
2023-04-15T03:03:56.580Z,95589.88
2023-04-15T03:06:24.813Z,95594.56
2023-04-15T03:08:53.073Z,95586.06
2023-04-15T03:11:23.197Z,95578.28
2023-04-15T03:13:51.935Z,95582.72
2023-04-15T03:16:29.265Z,95587.31
2023-04-15T03:18:59.178Z,95590.56
2023-04-15T03:21:27.663Z,95597.59
2023-04-15T03:23:56.162Z,95588.38
2023-04-15T03:26:29.127Z,95598.59
2023-04-15T03:29:00.888Z,95601.44
2023-04-15T03:31:29.444Z,95589.34
2023-04-15T03:33:57.520Z,95593.78
2023-04-15T03:36:25.871Z,95583.16
2023-04-15T03:38:53.984Z,95592.81
2023-04-15T03:41:22.555Z,95587.59
2023-04-15T03:43:52.766Z,95579.78
2023-04-15T03:46:20.962Z,95583.16
2023-04-15T03:48:49.211Z,95581.56
2023-04-15T03:51:17.339Z,95585.00
2023-04-15T03:53:45.410Z,95580.97
2023-04-15T03:56:13.422Z,95587.97
2023-04-15T03:58:41.407Z,95585.38
2023-04-15T04:01:11.678Z,95581.97
2023-04-15T04:03:39.912Z,95582.81
2023-04-15T04:06:08.422Z,95585.38
2023-04-15T04:08:36.609Z,95593.19
2023-04-15T04:11:05.452Z,95588.38
2023-04-15T04:13:33.584Z,95590.44
2023-04-15T04:16:02.074Z,95587.41
2023-04-15T04:18:31.609Z,95595.84
2023-04-15T04:20:59.899Z,95593.81
2023-04-15T04:23:28.095Z,95596.03
2023-04-15T04:25:56.296Z,95600.06
2023-04-15T04:28:24.313Z,95596.25
2023-04-15T04:30:52.519Z,95594.63
2023-04-15T04:33:20.689Z,95590.84
2023-04-15T04:35:50.083Z,95596.66
2023-04-15T04:38:18.232Z,95592.44
2023-04-15T04:40:46.598Z,95589.66
2023-04-15T04:43:15.929Z,95595.47
2023-04-15T04:45:44.030Z,95601.28
2023-04-15T04:48:12.099Z,95599.88
2023-04-15T04:50:40.417Z,95600.09
2023-04-15T04:53:09.818Z,95607.91
2023-04-15T04:55:37.902Z,95611.53
2023-04-15T04:58:06.188Z,95603.91
2023-04-15T05:00:34.235Z,95602.50
2023-04-15T05:03:02.627Z,95614.53
2023-04-15T05:05:30.771Z,95613.72
2023-04-15T05:07:58.842Z,95612.47
2023-04-15T05:10:28.326Z,95610.00
2023-04-15T05:12:56.334Z,95605.97
2023-04-15T05:15:24.889Z,95611.81
2023-04-15T05:17:53.069Z,95616.25
2023-04-15T05:20:21.286Z,95611.63
2023-04-15T05:22:49.377Z,95616.69
2023-04-15T05:25:17.881Z,95610.28
2023-04-15T05:27:47.263Z,95615.09
2023-04-15T05:30:15.516Z,95611.88
2023-04-15T05:32:43.757Z,95613.91
2023-04-15T05:35:12.343Z,95617.31
2023-04-15T05:37:40.621Z,95613.69
2023-04-15T05:40:10.696Z,95616.91
2023-04-15T05:42:38.979Z,95611.25
2023-04-15T05:45:09.482Z,95616.09
2023-04-15T05:47:37.697Z,95622.09
2023-04-15T05:50:07.306Z,95613.84
2023-04-15T05:52:35.488Z,95615.28
2023-04-15T05:55:03.677Z,95620.09
2023-04-15T05:57:31.894Z,95624.06
2023-04-15T05:59:59.995Z,95629.72
2023-04-15T06:02:29.463Z,95621.44
2023-04-15T06:04:57.705Z,95625.44
2023-04-15T06:07:25.921Z,95624.00
2023-04-15T06:09:54.007Z,95625.63
2023-04-15T06:12:22.031Z,95622.44
2023-04-15T06:14:50.104Z,95619.38
2023-04-15T06:17:19.198Z,95620.34
2023-04-15T06:19:50.348Z,95621.94
2023-04-15T06:22:18.569Z,95619.88
2023-04-15T06:24:46.632Z,95626.66
2023-04-15T06:27:14.669Z,95624.63
2023-04-15T06:29:42.716Z,95628.78
2023-04-15T06:32:10.876Z,95631.31
2023-04-15T06:34:38.936Z,95634.84
2023-04-15T06:37:10.025Z,95629.25
2023-04-15T06:39:38.293Z,95630.78
2023-04-15T06:42:06.717Z,95634.94
2023-04-15T06:44:34.900Z,95636.94
2023-04-15T06:47:03.179Z,95640.66
2023-04-15T06:49:31.270Z,95646.44
2023-04-15T06:52:00.600Z,95645.72
2023-04-15T06:54:30.051Z,95641.84
2023-04-15T06:56:58.101Z,95640.59
2023-04-15T06:59:27.323Z,95639.31
2023-04-15T07:01:57.603Z,95634.09
2023-04-15T07:04:27.903Z,95634.38
2023-04-15T07:06:56.867Z,95634.81
2023-04-15T07:09:49.741Z,95635.91
2023-04-15T07:12:19.129Z,95635.69
2023-04-15T07:14:47.387Z,95639.09
2023-04-15T07:17:15.505Z,95633.69
2023-04-15T07:19:43.528Z,95632.72
2023-04-15T07:22:11.815Z,95632.19
2023-04-15T07:24:39.890Z,95635.66
2023-04-15T07:27:08.418Z,95628.63
2023-04-15T07:29:37.797Z,95633.16
2023-04-15T07:32:06.938Z,95642.63
2023-04-15T07:34:35.009Z,95641.38
2023-04-15T07:37:03.512Z,95641.63
2023-04-15T07:39:31.640Z,95639.09
2023-04-15T07:42:00.036Z,95634.66
2023-04-15T07:44:28.761Z,95635.00
2023-04-15T07:46:58.413Z,95633.25
2023-04-15T07:49:26.494Z,95628.38
2023-04-15T07:51:54.886Z,95626.19
2023-04-15T07:54:23.010Z,95625.00
2023-04-15T07:56:51.014Z,95626.72
2023-04-15T07:59:19.231Z,95623.16
2023-04-15T08:01:47.404Z,95626.25
2023-04-15T08:04:18.072Z,95623.78
2023-04-15T08:06:47.973Z,95620.81
2023-04-15T08:09:16.134Z,95621.25
2023-04-15T08:11:44.542Z,95613.72
2023-04-15T08:14:12.590Z,95612.06
2023-04-15T08:16:40.852Z,95617.69
2023-04-15T08:19:11.245Z,95625.34
2023-04-15T08:21:41.043Z,95623.00
2023-04-15T08:24:09.162Z,95622.13
2023-04-15T08:26:37.192Z,95629.63
2023-04-15T08:29:05.334Z,95627.06
2023-04-15T08:31:33.550Z,95627.16
2023-04-15T08:34:01.649Z,95624.56
2023-04-15T08:36:29.805Z,95634.41
2023-04-15T08:39:01.477Z,95628.72
2023-04-15T08:41:40.756Z,95624.28
2023-04-15T08:44:09.383Z,95631.00
2023-04-15T08:46:37.769Z,95634.13
2023-04-15T08:49:07.062Z,95634.56
2023-04-15T08:51:35.262Z,95630.16
2023-04-15T08:54:05.592Z,95634.16
2023-04-15T08:56:33.867Z,95627.59
2023-04-15T08:59:02.466Z,95632.22
2023-04-15T09:01:31.332Z,95634.66
2023-04-15T09:04:00.843Z,95627.59
2023-04-15T09:06:28.997Z,95633.75
2023-04-15T09:08:57.606Z,95633.88
2023-04-15T09:11:27.225Z,95639.44
2023-04-15T09:13:55.396Z,95638.94
2023-04-15T09:16:24.033Z,95643.72
2023-04-15T09:18:52.253Z,95641.69
2023-04-15T09:21:20.386Z,95642.00
2023-04-15T09:23:59.852Z,95655.94
2023-04-15T09:26:37.560Z,95650.41
2023-04-15T09:29:10.409Z,95650.50
2023-04-15T09:31:38.774Z,95659.94
2023-04-15T09:34:07.418Z,95659.69
2023-04-15T09:36:55.217Z,95651.53
2023-04-15T09:39:23.506Z,95657.22
2023-04-15T09:42:08.187Z,95663.19
2023-04-15T09:44:36.671Z,95668.38
2023-04-15T09:47:04.784Z,95662.06
2023-04-15T09:49:33.040Z,95663.41
2023-04-15T09:52:06.230Z,95671.56
2023-04-15T09:54:36.584Z,95664.72
2023-04-15T09:57:10.884Z,95668.22
2023-04-15T09:59:38.955Z,95674.03
2023-04-15T10:02:08.388Z,95675.59
2023-04-15T10:04:40.797Z,95667.22
2023-04-15T10:07:10.472Z,95674.31
2023-04-15T10:09:40.815Z,95670.38
2023-04-15T10:12:11.277Z,95670.66
2023-04-15T10:14:41.427Z,95667.25
2023-04-15T10:17:13.446Z,95673.16
2023-04-15T10:19:42.448Z,95663.91
2023-04-15T10:22:11.171Z,95669.22
2023-04-15T10:24:41.221Z,95674.81
2023-04-15T10:27:11.255Z,95677.41
2023-04-15T10:29:39.758Z,95677.16
2023-04-15T10:32:08.335Z,95666.88
2023-04-15T10:34:36.813Z,95676.16
2023-04-15T10:37:06.116Z,95687.06
2023-04-15T10:39:43.156Z,95686.00
2023-04-15T10:42:15.239Z,95684.63
2023-04-15T10:44:49.870Z,95693.84
2023-04-15T10:47:20.133Z,95700.94
2023-04-15T10:49:50.946Z,95696.19
2023-04-15T10:52:27.903Z,95702.31
2023-04-15T10:55:05.378Z,95704.31
2023-04-15T10:57:41.028Z,95710.19
2023-04-15T11:00:14.958Z,95704.38
2023-04-15T11:02:48.778Z,95707.59
2023-04-15T11:05:18.417Z,95713.13
2023-04-15T11:07:56.059Z,95709.75
2023-04-15T11:10:55.101Z,95719.00
2023-04-15T11:13:31.387Z,95713.69
2023-04-15T11:16:03.962Z,95708.66
2023-04-15T11:18:35.372Z,95708.94
2023-04-15T11:21:06.666Z,95710.81
2023-04-15T11:23:41.119Z,95718.50
2023-04-15T11:26:12.111Z,95721.13
2023-04-15T11:28:43.536Z,95719.88
2023-04-15T11:31:13.611Z,95718.91
2023-04-15T11:33:54.559Z,95720.56
2023-04-15T11:36:26.457Z,95724.53
2023-04-15T11:38:54.788Z,95713.22
2023-04-15T11:41:23.442Z,95717.19
2023-04-15T11:43:53.501Z,95720.97
2023-04-15T11:46:22.837Z,95717.25
2023-04-15T11:48:51.163Z,95731.06
2023-04-15T11:51:21.772Z,95726.28
2023-04-15T11:53:51.934Z,95727.09
2023-04-15T11:56:22.258Z,95732.97
2023-04-15T11:58:57.074Z,95732.75
2023-04-15T12:01:33.052Z,95738.78
2023-04-15T12:04:02.404Z,95745.41
2023-04-15T12:06:36.866Z,95737.44
2023-04-15T12:09:16.579Z,95746.97
2023-04-15T12:11:47.428Z,95746.97
2023-04-15T12:14:23.676Z,95741.66
2023-04-15T12:17:00.316Z,95754.44
2023-04-15T12:19:57.885Z,95751.63
2023-04-15T12:22:26.057Z,95759.09
2023-04-15T12:24:57.723Z,95761.75
2023-04-15T12:27:29.676Z,95767.88
2023-04-15T12:30:07.992Z,95771.63
2023-04-15T12:32:37.409Z,95773.75
2023-04-15T12:35:06.336Z,95779.66
2023-04-15T12:37:34.453Z,95776.19
2023-04-15T12:40:02.810Z,95780.16
2023-04-15T12:42:30.851Z,95781.75
2023-04-15T12:44:58.926Z,95791.81
2023-04-15T12:47:28.411Z,95794.97
2023-04-15T12:49:56.546Z,95801.53
2023-04-15T12:52:25.492Z,95813.13
2023-04-15T12:54:56.476Z,95810.88
2023-04-15T12:57:24.512Z,95821.03
2023-04-15T12:59:52.717Z,95814.59
2023-04-15T13:02:21.261Z,95823.28
2023-04-15T13:04:50.717Z,95819.00
2023-04-15T13:07:18.831Z,95836.34
2023-04-15T13:09:47.531Z,95829.75
2023-04-15T13:12:16.342Z,95835.84
2023-04-15T13:14:44.422Z,95837.63
2023-04-15T13:17:12.621Z,95839.91
2023-04-15T13:19:40.603Z,95856.53
2023-04-15T13:22:10.281Z,95860.78
2023-04-15T13:24:39.177Z,95867.38
2023-04-15T13:27:08.414Z,95863.06
2023-04-15T13:29:36.452Z,95868.22
2023-04-15T13:32:05.415Z,95861.47
2023-04-15T13:34:33.523Z,95866.19
2023-04-15T13:37:09.156Z,95870.69
2023-04-15T13:39:37.518Z,95876.09
2023-04-15T13:42:05.774Z,95876.41
2023-04-15T13:44:33.813Z,95874.56
2023-04-15T13:47:01.837Z,95874.25
2023-04-15T13:49:30.355Z,95875.84
2023-04-15T13:51:59.251Z,95882.81
2023-04-15T13:54:37.559Z,95891.06
2023-04-15T13:57:06.660Z,95886.34
2023-04-15T13:59:34.948Z,95898.06
2023-04-15T14:02:03.595Z,95897.22
2023-04-15T14:04:32.524Z,95893.88
2023-04-15T14:07:01.210Z,95897.19
2023-04-15T14:09:33.760Z,95902.94
2023-04-15T14:12:03.397Z,95907.06
2023-04-15T14:14:31.652Z,95895.19
2023-04-15T14:17:00.062Z,95909.56
2023-04-15T14:19:28.440Z,95908.50
2023-04-15T14:21:56.508Z,95909.56
2023-04-15T14:24:24.554Z,95907.66
2023-04-15T14:26:54.202Z,95908.16
2023-04-15T14:29:22.244Z,95912.59
2023-04-15T14:32:06.727Z,95912.25
2023-04-15T14:34:38.906Z,95914.84
2023-04-15T14:37:07.032Z,95930.47
2023-04-15T14:39:35.231Z,95932.31
2023-04-15T14:42:10.424Z,95943.94
2023-04-15T14:44:38.506Z,95942.50
2023-04-15T14:47:07.403Z,95948.03
2023-04-15T14:49:35.730Z,95953.16
2023-04-15T14:52:08.645Z,95950.34
2023-04-15T14:54:37.218Z,95966.97
2023-04-15T14:57:07.673Z,95963.44
2023-04-15T14:59:36.449Z,95964.97
2023-04-15T15:02:04.800Z,95979.28
2023-04-15T15:04:33.589Z,95977.13
2023-04-15T15:07:27.224Z,95981.94
2023-04-15T15:09:55.673Z,95988.50
2023-04-15T15:12:25.069Z,95983.94
2023-04-15T15:14:53.150Z,95978.16
2023-04-15T15:17:21.279Z,95988.91
2023-04-15T15:19:49.507Z,95988.97
2023-04-15T15:22:20.171Z,95985.56
2023-04-15T15:24:49.627Z,95983.63
2023-04-15T15:27:17.743Z,95994.66
2023-04-15T15:29:47.210Z,95993.72
2023-04-15T15:32:15.256Z,95993.72
2023-04-15T15:34:43.353Z,95988.19
2023-04-15T15:37:11.426Z,95997.94
2023-04-15T15:39:40.909Z,96001.06
2023-04-15T15:42:09.181Z,96003.06
2023-04-15T15:44:38.491Z,95999.25
2023-04-15T15:47:09.176Z,96014.66
2023-04-15T15:49:37.374Z,96007.31
2023-04-15T15:52:07.380Z,96010.13
2023-04-15T15:54:41.201Z,96012.25
2023-04-15T15:57:10.154Z,96013.00
2023-04-15T15:59:41.046Z,96011.13
2023-04-15T16:02:13.061Z,96019.41
2023-04-15T16:04:43.166Z,96017.47
2023-04-15T16:10:04.305Z,96033.09
2023-04-15T16:12:33.848Z,96031.56
2023-04-15T16:15:04.853Z,96039.31
2023-04-15T16:17:34.578Z,96040.94
2023-04-15T16:20:05.455Z,96047.34
2023-04-15T16:22:33.707Z,96058.69
2023-04-15T16:25:02.006Z,96062.59
2023-04-15T16:27:30.344Z,96069.97
2023-04-15T16:29:58.358Z,96077.22
2023-04-15T16:32:27.016Z,96072.38
2023-04-15T16:34:56.864Z,96081.13
2023-04-15T16:37:24.940Z,96085.75
2023-04-15T16:39:52.960Z,96088.75
2023-04-15T16:42:20.997Z,96095.53
2023-04-15T16:44:49.029Z,96095.69
2023-04-15T16:47:17.318Z,96104.06
2023-04-15T16:49:45.419Z,96105.22
2023-04-15T16:52:15.227Z,96114.50
2023-04-15T16:54:43.305Z,96123.47
2023-04-15T16:57:11.481Z,96129.09
2023-04-15T16:59:39.704Z,96135.53
2023-04-15T17:02:11.399Z,96137.72
2023-04-15T17:04:39.757Z,96137.72
2023-04-15T17:07:08.795Z,96142.66
2023-04-15T17:09:40.081Z,96150.34
2023-04-15T17:12:08.740Z,96149.19
2023-04-15T17:14:38.583Z,96150.19
2023-04-15T17:17:07.765Z,96152.94
2023-04-15T17:19:35.786Z,96152.16
2023-04-15T17:22:03.904Z,96148.00
2023-04-15T17:24:32.378Z,96174.81
2023-04-15T17:27:03.700Z,96175.25
2023-04-15T17:29:32.108Z,96175.25
2023-04-15T17:32:00.822Z,96183.47
2023-04-15T17:34:49.805Z,96187.81
2023-04-15T17:37:18.781Z,96187.00
2023-04-15T17:39:46.857Z,96188.03
2023-04-15T17:42:16.884Z,96194.19
2023-04-15T17:44:46.071Z,96196.47
2023-04-15T17:47:14.237Z,96203.19
2023-04-15T17:49:42.360Z,96218.03
2023-04-15T17:52:10.523Z,96221.47
2023-04-15T17:54:38.661Z,96223.03
2023-04-15T17:57:06.882Z,96232.69
2023-04-15T17:59:36.323Z,96229.97
2023-04-15T18:02:04.465Z,96235.19
2023-04-15T18:04:32.874Z,96229.31
2023-04-15T18:07:01.000Z,96234.50
2023-04-15T18:09:29.268Z,96231.72
2023-04-15T18:11:57.449Z,96242.13
2023-04-15T18:14:34.128Z,96240.75
2023-04-15T18:17:04.711Z,96244.22
2023-04-15T18:19:32.961Z,96239.91
2023-04-15T18:22:01.096Z,96246.66
2023-04-15T18:24:29.667Z,96250.03
2023-04-15T18:26:58.994Z,96254.34
2023-04-15T18:29:27.155Z,96260.41
2023-04-15T18:31:55.405Z,96255.09
2023-04-15T18:34:24.856Z,96268.41
2023-04-15T18:36:53.094Z,96264.44
2023-04-15T18:39:21.132Z,96258.50
2023-04-15T18:41:49.164Z,96265.38
2023-04-15T18:44:17.177Z,96264.84
2023-04-15T18:46:45.672Z,96274.59
2023-04-15T18:49:13.940Z,96282.28
2023-04-15T18:51:43.361Z,96285.06
2023-04-15T18:54:11.422Z,96289.50
2023-04-15T18:56:40.169Z,96287.25
2023-04-15T18:59:28.031Z,96296.88
2023-04-15T19:01:57.140Z,96297.81
2023-04-15T19:04:25.417Z,96300.50
2023-04-15T19:06:55.737Z,96299.28
2023-04-15T19:09:23.898Z,96301.91
2023-04-15T19:11:51.940Z,96310.41
2023-04-15T19:14:20.666Z,96315.31
2023-04-15T19:16:48.809Z,96315.97
2023-04-15T19:19:17.029Z,96314.38
2023-04-15T19:21:45.627Z,96318.63
2023-04-15T19:24:15.512Z,96325.50
2023-04-15T19:26:43.980Z,96319.50
2023-04-15T19:29:12.271Z,96321.78
2023-04-15T19:31:40.774Z,96318.81
2023-04-15T19:34:08.797Z,96343.38
2023-04-15T19:36:37.592Z,96332.03
2023-04-15T19:39:06.113Z,96328.66
2023-04-15T19:41:36.166Z,96335.63
2023-04-15T19:44:09.343Z,96344.69
2023-04-15T19:46:40.740Z,96343.09
2023-04-15T19:49:09.149Z,96339.06
2023-04-15T19:51:37.309Z,96343.53
2023-04-15T19:54:05.504Z,96332.19
2023-04-15T19:56:35.356Z,96340.91
2023-04-15T19:59:03.895Z,96342.75
2023-04-15T20:01:32.636Z,96350.44
2023-04-15T20:04:03.259Z,96341.94
2023-04-15T20:06:31.579Z,96350.84
2023-04-15T20:08:59.771Z,96351.88
2023-04-15T20:12:05.224Z,96348.06
2023-04-15T20:14:18.714Z,96347.38
2023-04-15T20:16:48.297Z,96351.69
2023-04-15T20:19:16.337Z,96348.63
2023-04-15T20:21:44.433Z,96344.34
2023-04-15T20:24:12.639Z,96345.78
2023-04-15T20:26:40.756Z,96351.59
2023-04-15T20:29:08.883Z,96346.00
2023-04-15T20:31:39.107Z,96348.06
2023-04-15T20:34:08.817Z,96349.25
2023-04-15T20:36:38.793Z,96345.44
2023-04-15T20:39:07.076Z,96354.50
2023-04-15T20:41:35.388Z,96357.38
2023-04-15T20:44:03.430Z,96349.06
2023-04-15T20:46:31.693Z,96353.91
2023-04-15T20:49:02.009Z,96354.94
2023-04-15T20:51:37.146Z,96352.19
2023-04-15T20:54:05.426Z,96360.16
2023-04-15T20:56:33.629Z,96357.88
2023-04-15T20:59:02.061Z,96356.97
2023-04-15T21:01:30.363Z,96361.38
2023-04-15T21:04:01.362Z,96368.84
2023-04-15T21:06:29.550Z,96362.84
2023-04-15T21:08:57.621Z,96358.53
2023-04-15T21:11:46.383Z,96362.72
2023-04-15T21:14:13.949Z,96362.25
2023-04-15T21:16:42.164Z,96375.59
2023-04-15T21:19:11.889Z,96371.69
2023-04-15T21:21:39.993Z,96378.88
2023-04-15T21:24:08.588Z,96375.91
2023-04-15T21:26:36.876Z,96382.72
2023-04-15T21:29:05.232Z,96389.41
2023-04-15T21:31:34.563Z,96382.72
2023-04-15T21:34:02.699Z,96391.19
2023-04-15T21:36:32.599Z,96407.59
2023-04-15T21:39:00.835Z,96399.69
2023-04-15T21:41:28.980Z,96403.13
2023-04-15T21:43:57.000Z,96400.91
2023-04-15T21:46:32.771Z,96410.41
2023-04-15T21:49:01.638Z,96413.81
2023-04-15T21:51:31.447Z,96413.81
2023-04-15T21:53:59.951Z,96415.63
2023-04-15T21:56:28.284Z,96415.47
2023-04-15T21:58:58.343Z,96413.03
2023-04-15T22:01:27.509Z,96413.25
2023-04-15T22:03:55.889Z,96420.47
2023-04-15T22:06:24.084Z,96420.69
2023-04-15T22:08:57.542Z,96421.56
2023-04-15T22:11:28.230Z,96424.38
2023-04-15T22:13:58.205Z,96431.09
2023-04-15T22:16:27.246Z,96428.81
2023-04-15T22:18:55.441Z,96425.78
2023-04-15T22:21:23.784Z,96433.41
2023-04-15T22:24:38.537Z,96440.69
2023-04-15T22:26:42.215Z,96437.91
2023-04-15T22:29:10.632Z,96443.19
2023-04-15T22:31:38.918Z,96441.97
2023-04-15T22:34:07.096Z,96445.22
2023-04-15T22:36:35.149Z,96443.56
2023-04-15T22:39:04.813Z,96447.81
2023-04-15T22:41:33.093Z,96454.72
2023-04-15T22:44:01.077Z,96459.56
2023-04-15T22:46:35.486Z,96454.91
2023-04-15T22:49:03.792Z,96461.63
2023-04-15T22:51:32.763Z,96453.31
2023-04-15T22:54:02.471Z,96458.38
2023-04-15T22:56:31.873Z,96463.44
2023-04-15T22:59:00.042Z,96467.91
2023-04-15T23:01:29.031Z,96464.09
2023-04-15T23:04:06.014Z,96464.84
2023-04-15T23:06:39.679Z,96469.91
2023-04-15T23:09:08.015Z,96476.78
2023-04-15T23:11:37.550Z,96473.75
2023-04-15T23:14:05.647Z,96474.38
2023-04-15T23:16:33.799Z,96479.22
2023-04-15T23:19:01.911Z,96479.63
2023-04-15T23:21:29.930Z,96472.72
2023-04-15T23:23:58.005Z,96475.97
2023-04-15T23:26:27.447Z,96482.88
2023-04-15T23:29:00.972Z,96481.66
2023-04-15T23:31:33.213Z,96486.50
2023-04-15T23:34:03.100Z,96489.94
2023-04-15T23:36:31.719Z,96494.22
2023-04-15T23:38:59.908Z,96487.94
2023-04-15T23:41:28.009Z,96490.56
2023-04-15T23:43:57.412Z,96492.16
2023-04-15T23:46:25.694Z,96493.56
2023-04-15T23:48:53.831Z,96494.38
2023-04-15T23:51:21.912Z,96495.41
2023-04-15T23:53:52.236Z,96489.75
2023-04-15T23:56:20.825Z,96496.03
2023-04-15T23:58:48.878Z,96491.59
